sensor_id;sensor_type;location;lat;lon;timestamp;P1;durP1;ratioP1;P2;durP2;ratioP2
13012;SDS011;22580;57.670;12.006;2022-09-03T00:01:17;0.10;;;0.10;;
13012;SDS011;22580;57.670;12.006;2022-09-03T00:03:51;0.10;;;0.10;;
13012;SDS011;22580;57.670;12.006;2022-09-03T00:06:26;0.20;;;0.20;;
13012;SDS011;22580;57.670;12.006;2022-09-03T00:09:00;0.20;;;0.20;;
13012;SDS011;22580;57.670;12.006;2022-09-03T00:11:32;0.10;;;0.10;;
13012;SDS011;22580;57.670;12.006;2022-09-03T00:14:09;0.10;;;0.10;;
13012;SDS011;22580;57.670;12.006;2022-09-03T00:16:43;0.10;;;0.10;;
13012;SDS011;22580;57.670;12.006;2022-09-03T00:19:17;0.20;;;0.20;;
13012;SDS011;22580;57.670;12.006;2022-09-03T00:21:47;0.10;;;0.10;;
13012;SDS011;22580;57.670;12.006;2022-09-03T00:24:18;0.20;;;0.10;;
13012;SDS011;22580;57.670;12.006;2022-09-03T00:26:49;0.10;;;0.10;;
13012;SDS011;22580;57.670;12.006;2022-09-03T00:29:22;0.20;;;0.20;;
13012;SDS011;22580;57.670;12.006;2022-09-03T00:31:55;0.20;;;0.20;;
13012;SDS011;22580;57.670;12.006;2022-09-03T00:34:28;0.10;;;0.10;;
13012;SDS011;22580;57.670;12.006;2022-09-03T00:36:57;0.10;;;0.10;;
13012;SDS011;22580;57.670;12.006;2022-09-03T00:39:25;0.10;;;0.10;;
13012;SDS011;22580;57.670;12.006;2022-09-03T00:41:58;0.20;;;0.20;;
13012;SDS011;22580;57.670;12.006;2022-09-03T00:44:41;0.10;;;0.10;;
13012;SDS011;22580;57.670;12.006;2022-09-03T00:47:20;0.10;;;0.10;;
13012;SDS011;22580;57.670;12.006;2022-09-03T00:49:59;0.10;;;0.10;;
13012;SDS011;22580;57.670;12.006;2022-09-03T00:52:44;0.10;;;0.10;;
13012;SDS011;22580;57.670;12.006;2022-09-03T00:55:25;0.10;;;0.10;;
13012;SDS011;22580;57.670;12.006;2022-09-03T01:01:13;0.10;;;0.10;;
13012;SDS011;22580;57.670;12.006;2022-09-03T01:03:47;0.10;;;0.10;;
13012;SDS011;22580;57.670;12.006;2022-09-03T01:06:27;0.10;;;0.10;;
13012;SDS011;22580;57.670;12.006;2022-09-03T01:09:02;0.20;;;0.20;;
13012;SDS011;22580;57.670;12.006;2022-09-03T01:11:44;0.10;;;0.10;;
13012;SDS011;22580;57.670;12.006;2022-09-03T01:14:27;0.13;;;0.13;;
13012;SDS011;22580;57.670;12.006;2022-09-03T01:17:06;0.10;;;0.10;;
13012;SDS011;22580;57.670;12.006;2022-09-03T01:22:56;0.10;;;0.10;;
13012;SDS011;22580;57.670;12.006;2022-09-03T01:25:48;0.10;;;0.10;;
13012;SDS011;22580;57.670;12.006;2022-09-03T01:28:25;0.17;;;0.17;;
13012;SDS011;22580;57.670;12.006;2022-09-03T01:31:08;0.10;;;0.10;;
13012;SDS011;22580;57.670;12.006;2022-09-03T01:33:46;0.23;;;0.10;;
13012;SDS011;22580;57.670;12.006;2022-09-03T01:36:23;0.10;;;0.10;;
13012;SDS011;22580;57.670;12.006;2022-09-03T01:38:59;0.10;;;0.10;;
13012;SDS011;22580;57.670;12.006;2022-09-03T01:41:32;0.13;;;0.13;;
13012;SDS011;22580;57.670;12.006;2022-09-03T01:44:30;0.10;;;0.10;;
13012;SDS011;22580;57.670;12.006;2022-09-03T01:47:10;0.10;;;0.10;;
13012;SDS011;22580;57.670;12.006;2022-09-03T01:49:47;0.17;;;0.17;;
13012;SDS011;22580;57.670;12.006;2022-09-03T01:52:28;0.03;;;0.03;;
13012;SDS011;22580;57.670;12.006;2022-09-03T01:55:10;0.10;;;0.10;;
13012;SDS011;22580;57.670;12.006;2022-09-03T01:57:47;0.10;;;0.10;;
13012;SDS011;22580;57.670;12.006;2022-09-03T02:00:21;0.10;;;0.10;;
13012;SDS011;22580;57.670;12.006;2022-09-03T02:02:50;0.20;;;0.20;;
13012;SDS011;22580;57.670;12.006;2022-09-03T02:05:18;0.20;;;0.10;;
13012;SDS011;22580;57.670;12.006;2022-09-03T02:07:50;0.20;;;0.10;;
13012;SDS011;22580;57.670;12.006;2022-09-03T02:10:22;0.20;;;0.20;;
13012;SDS011;22580;57.670;12.006;2022-09-03T02:12:56;0.20;;;0.20;;
13012;SDS011;22580;57.670;12.006;2022-09-03T02:15:28;0.13;;;0.13;;
13012;SDS011;22580;57.670;12.006;2022-09-03T02:18:01;0.10;;;0.10;;
13012;SDS011;22580;57.670;12.006;2022-09-03T02:20:33;0.10;;;0.10;;
13012;SDS011;22580;57.670;12.006;2022-09-03T02:23:04;0.10;;;0.10;;
13012;SDS011;22580;57.670;12.006;2022-09-03T02:25:31;0.20;;;0.20;;
13012;SDS011;22580;57.670;12.006;2022-09-03T02:28:02;0.00;;;0.00;;
13012;SDS011;22580;57.670;12.006;2022-09-03T02:30:33;0.00;;;0.00;;
13012;SDS011;22580;57.670;12.006;2022-09-03T02:33:00;0.00;;;0.00;;
13012;SDS011;22580;57.670;12.006;2022-09-03T02:35:27;0.10;;;0.10;;
13012;SDS011;22580;57.670;12.006;2022-09-03T02:37:54;0.10;;;0.10;;
13012;SDS011;22580;57.670;12.006;2022-09-03T02:40:21;0.10;;;0.10;;
13012;SDS011;22580;57.670;12.006;2022-09-03T02:42:51;0.10;;;0.10;;
13012;SDS011;22580;57.670;12.006;2022-09-03T02:45:20;0.10;;;0.10;;
13012;SDS011;22580;57.670;12.006;2022-09-03T02:47:55;0.10;;;0.10;;
13012;SDS011;22580;57.670;12.006;2022-09-03T02:50:25;0.10;;;0.10;;
13012;SDS011;22580;57.670;12.006;2022-09-03T02:52:52;0.10;;;0.10;;
13012;SDS011;22580;57.670;12.006;2022-09-03T02:55:19;0.10;;;0.10;;
13012;SDS011;22580;57.670;12.006;2022-09-03T02:57:47;0.00;;;0.00;;
13012;SDS011;22580;57.670;12.006;2022-09-03T03:00:14;0.03;;;0.03;;
13012;SDS011;22580;57.670;12.006;2022-09-03T03:02:42;1.03;;;0.23;;
13012;SDS011;22580;57.670;12.006;2022-09-03T03:05:13;0.10;;;0.10;;
13012;SDS011;22580;57.670;12.006;2022-09-03T03:07:47;0.10;;;0.10;;
13012;SDS011;22580;57.670;12.006;2022-09-03T03:10:14;0.10;;;0.10;;
13012;SDS011;22580;57.670;12.006;2022-09-03T03:12:41;0.23;;;0.20;;
13012;SDS011;22580;57.670;12.006;2022-09-03T03:15:08;0.10;;;0.10;;
13012;SDS011;22580;57.670;12.006;2022-09-03T03:17:36;0.10;;;0.10;;
13012;SDS011;22580;57.670;12.006;2022-09-03T03:20:03;0.23;;;0.10;;
13012;SDS011;22580;57.670;12.006;2022-09-03T03:22:32;0.10;;;0.10;;
13012;SDS011;22580;57.670;12.006;2022-09-03T03:24:59;0.00;;;0.00;;
13012;SDS011;22580;57.670;12.006;2022-09-03T03:27:26;0.10;;;0.10;;
13012;SDS011;22580;57.670;12.006;2022-09-03T03:29:59;0.10;;;0.10;;
13012;SDS011;22580;57.670;12.006;2022-09-03T03:32:26;0.10;;;0.10;;
13012;SDS011;22580;57.670;12.006;2022-09-03T03:34:53;0.10;;;0.10;;
13012;SDS011;22580;57.670;12.006;2022-09-03T03:37:20;0.20;;;0.20;;
13012;SDS011;22580;57.670;12.006;2022-09-03T03:39:48;0.13;;;0.13;;
13012;SDS011;22580;57.670;12.006;2022-09-03T03:42:15;0.10;;;0.10;;
13012;SDS011;22580;57.670;12.006;2022-09-03T03:44:42;0.17;;;0.17;;
13012;SDS011;22580;57.670;12.006;2022-09-03T03:47:12;0.20;;;0.20;;
13012;SDS011;22580;57.670;12.006;2022-09-03T03:49:41;0.20;;;0.20;;
13012;SDS011;22580;57.670;12.006;2022-09-03T03:52:08;0.10;;;0.10;;
13012;SDS011;22580;57.670;12.006;2022-09-03T03:54:35;0.20;;;0.10;;
13012;SDS011;22580;57.670;12.006;2022-09-03T03:57:03;0.10;;;0.10;;
13012;SDS011;22580;57.670;12.006;2022-09-03T03:59:30;0.00;;;0.00;;
13012;SDS011;22580;57.670;12.006;2022-09-03T04:02:00;0.53;;;0.10;;
13012;SDS011;22580;57.670;12.006;2022-09-03T04:04:27;0.17;;;0.17;;
13012;SDS011;22580;57.670;12.006;2022-09-03T04:06:54;0.10;;;0.10;;
13012;SDS011;22580;57.670;12.006;2022-09-03T04:09:21;0.10;;;0.10;;
13012;SDS011;22580;57.670;12.006;2022-09-03T04:11:48;0.10;;;0.10;;
13012;SDS011;22580;57.670;12.006;2022-09-03T04:14:17;0.10;;;0.10;;
13012;SDS011;22580;57.670;12.006;2022-09-03T04:16:44;0.17;;;0.17;;
13012;SDS011;22580;57.670;12.006;2022-09-03T04:19:11;0.00;;;0.00;;
13012;SDS011;22580;57.670;12.006;2022-09-03T04:21:39;0.10;;;0.10;;
13012;SDS011;22580;57.670;12.006;2022-09-03T04:24:06;0.07;;;0.07;;
13012;SDS011;22580;57.670;12.006;2022-09-03T04:26:33;0.10;;;0.10;;
13012;SDS011;22580;57.670;12.006;2022-09-03T04:29:01;0.10;;;0.10;;
13012;SDS011;22580;57.670;12.006;2022-09-03T04:31:31;0.20;;;0.10;;
13012;SDS011;22580;57.670;12.006;2022-09-03T04:33:58;0.10;;;0.10;;
13012;SDS011;22580;57.670;12.006;2022-09-03T04:36:26;0.20;;;0.20;;
13012;SDS011;22580;57.670;12.006;2022-09-03T04:38:57;0.20;;;0.20;;
13012;SDS011;22580;57.670;12.006;2022-09-03T04:41:25;0.20;;;0.20;;
13012;SDS011;22580;57.670;12.006;2022-09-03T04:43:54;0.20;;;0.20;;
13012;SDS011;22580;57.670;12.006;2022-09-03T04:46:23;0.10;;;0.10;;
13012;SDS011;22580;57.670;12.006;2022-09-03T04:48:58;0.20;;;0.20;;
13012;SDS011;22580;57.670;12.006;2022-09-03T04:51:26;0.20;;;0.20;;
13012;SDS011;22580;57.670;12.006;2022-09-03T04:53:54;0.20;;;0.10;;
13012;SDS011;22580;57.670;12.006;2022-09-03T04:56:23;0.83;;;0.10;;
13012;SDS011;22580;57.670;12.006;2022-09-03T04:58:53;0.20;;;0.20;;
13012;SDS011;22580;57.670;12.006;2022-09-03T05:01:22;0.10;;;0.10;;
13012;SDS011;22580;57.670;12.006;2022-09-03T05:03:50;0.13;;;0.13;;
13012;SDS011;22580;57.670;12.006;2022-09-03T05:06:19;0.00;;;0.00;;
13012;SDS011;22580;57.670;12.006;2022-09-03T05:08:46;0.00;;;0.00;;
13012;SDS011;22580;57.670;12.006;2022-09-03T05:11:14;0.07;;;0.07;;
13012;SDS011;22580;57.670;12.006;2022-09-03T05:13:41;0.13;;;0.13;;
13012;SDS011;22580;57.670;12.006;2022-09-03T05:16:09;0.10;;;0.10;;
13012;SDS011;22580;57.670;12.006;2022-09-03T05:18:39;0.07;;;0.07;;
13012;SDS011;22580;57.670;12.006;2022-09-03T05:21:07;0.10;;;0.10;;
13012;SDS011;22580;57.670;12.006;2022-09-03T05:23:37;0.20;;;0.10;;
13012;SDS011;22580;57.670;12.006;2022-09-03T05:26:07;0.10;;;0.10;;
13012;SDS011;22580;57.670;12.006;2022-09-03T05:28:36;0.10;;;0.10;;
13012;SDS011;22580;57.670;12.006;2022-09-03T05:31:05;0.10;;;0.10;;
13012;SDS011;22580;57.670;12.006;2022-09-03T05:33:33;0.20;;;0.20;;
13012;SDS011;22580;57.670;12.006;2022-09-03T05:36:02;0.10;;;0.10;;
13012;SDS011;22580;57.670;12.006;2022-09-03T05:38:33;0.10;;;0.10;;
13012;SDS011;22580;57.670;12.006;2022-09-03T05:41:01;0.10;;;0.10;;
13012;SDS011;22580;57.670;12.006;2022-09-03T05:43:30;0.10;;;0.10;;
13012;SDS011;22580;57.670;12.006;2022-09-03T05:45:58;0.10;;;0.10;;
13012;SDS011;22580;57.670;12.006;2022-09-03T05:48:25;0.30;;;0.10;;
13012;SDS011;22580;57.670;12.006;2022-09-03T05:50:57;0.10;;;0.10;;
13012;SDS011;22580;57.670;12.006;2022-09-03T05:53:26;0.10;;;0.10;;
13012;SDS011;22580;57.670;12.006;2022-09-03T05:55:56;0.10;;;0.10;;
13012;SDS011;22580;57.670;12.006;2022-09-03T05:58:30;0.10;;;0.10;;
13012;SDS011;22580;57.670;12.006;2022-09-03T06:00:57;0.10;;;0.10;;
13012;SDS011;22580;57.670;12.006;2022-09-03T06:03:24;0.10;;;0.10;;
13012;SDS011;22580;57.670;12.006;2022-09-03T06:05:52;0.10;;;0.10;;
13012;SDS011;22580;57.670;12.006;2022-09-03T06:08:20;0.10;;;0.10;;
13012;SDS011;22580;57.670;12.006;2022-09-03T06:10:49;0.10;;;0.10;;
13012;SDS011;22580;57.670;12.006;2022-09-03T06:13:16;0.10;;;0.10;;
13012;SDS011;22580;57.670;12.006;2022-09-03T06:15:44;0.20;;;0.20;;
13012;SDS011;22580;57.670;12.006;2022-09-03T06:18:11;0.20;;;0.10;;
13012;SDS011;22580;57.670;12.006;2022-09-03T06:20:39;0.10;;;0.10;;
13012;SDS011;22580;57.670;12.006;2022-09-03T06:23:06;0.30;;;0.17;;
13012;SDS011;22580;57.670;12.006;2022-09-03T06:25:33;0.10;;;0.10;;
13012;SDS011;22580;57.670;12.006;2022-09-03T06:28:00;0.10;;;0.10;;
13012;SDS011;22580;57.670;12.006;2022-09-03T06:30:27;0.10;;;0.10;;
13012;SDS011;22580;57.670;12.006;2022-09-03T06:32:56;0.10;;;0.10;;
13012;SDS011;22580;57.670;12.006;2022-09-03T06:35:23;0.13;;;0.13;;
13012;SDS011;22580;57.670;12.006;2022-09-03T06:37:50;0.20;;;0.10;;
13012;SDS011;22580;57.670;12.006;2022-09-03T06:40:17;0.10;;;0.10;;
13012;SDS011;22580;57.670;12.006;2022-09-03T06:42:54;0.10;;;0.10;;
13012;SDS011;22580;57.670;12.006;2022-09-03T06:45:25;0.10;;;0.10;;
13012;SDS011;22580;57.670;12.006;2022-09-03T06:47:53;0.10;;;0.10;;
13012;SDS011;22580;57.670;12.006;2022-09-03T06:50:22;0.10;;;0.10;;
13012;SDS011;22580;57.670;12.006;2022-09-03T06:52:52;0.10;;;0.10;;
13012;SDS011;22580;57.670;12.006;2022-09-03T06:55:19;0.20;;;0.20;;
13012;SDS011;22580;57.670;12.006;2022-09-03T06:57:47;0.10;;;0.10;;
13012;SDS011;22580;57.670;12.006;2022-09-03T07:00:15;0.13;;;0.13;;
13012;SDS011;22580;57.670;12.006;2022-09-03T07:02:42;0.20;;;0.20;;
13012;SDS011;22580;57.670;12.006;2022-09-03T07:05:09;0.77;;;0.22;;
13012;SDS011;22580;57.670;12.006;2022-09-03T07:07:38;1.40;;;0.70;;
13012;SDS011;22580;57.670;12.006;2022-09-03T07:10:05;0.77;;;0.60;;
13012;SDS011;22580;57.670;12.006;2022-09-03T07:12:34;0.40;;;0.40;;
13012;SDS011;22580;57.670;12.006;2022-09-03T07:15:02;0.30;;;0.30;;
13012;SDS011;22580;57.670;12.006;2022-09-03T07:17:30;0.30;;;0.30;;
13012;SDS011;22580;57.670;12.006;2022-09-03T07:19:57;0.20;;;0.20;;
13012;SDS011;22580;57.670;12.006;2022-09-03T07:22:24;0.30;;;0.30;;
13012;SDS011;22580;57.670;12.006;2022-09-03T07:24:52;0.20;;;0.17;;
13012;SDS011;22580;57.670;12.006;2022-09-03T07:27:19;0.25;;;0.25;;
13012;SDS011;22580;57.670;12.006;2022-09-03T07:29:47;0.65;;;0.50;;
13012;SDS011;22580;57.670;12.006;2022-09-03T07:32:14;0.95;;;0.43;;
13012;SDS011;22580;57.670;12.006;2022-09-03T07:34:41;0.40;;;0.40;;
13012;SDS011;22580;57.670;12.006;2022-09-03T07:37:08;1.27;;;0.73;;
13012;SDS011;22580;57.670;12.006;2022-09-03T07:39:35;0.60;;;0.50;;
13012;SDS011;22580;57.670;12.006;2022-09-03T07:42:04;0.43;;;0.40;;
13012;SDS011;22580;57.670;12.006;2022-09-03T07:44:35;0.50;;;0.47;;
13012;SDS011;22580;57.670;12.006;2022-09-03T07:47:02;0.45;;;0.30;;
13012;SDS011;22580;57.670;12.006;2022-09-03T07:49:30;0.20;;;0.20;;
13012;SDS011;22580;57.670;12.006;2022-09-03T07:51:57;0.20;;;0.20;;
13012;SDS011;22580;57.670;12.006;2022-09-03T07:54:25;0.32;;;0.32;;
13012;SDS011;22580;57.670;12.006;2022-09-03T07:56:52;0.20;;;0.20;;
13012;SDS011;22580;57.670;12.006;2022-09-03T07:59:21;0.20;;;0.20;;
13012;SDS011;22580;57.670;12.006;2022-09-03T08:01:48;0.20;;;0.20;;
13012;SDS011;22580;57.670;12.006;2022-09-03T08:04:16;0.17;;;0.17;;
13012;SDS011;22580;57.670;12.006;2022-09-03T08:06:51;0.22;;;0.20;;
13012;SDS011;22580;57.670;12.006;2022-09-03T08:09:29;0.10;;;0.10;;
13012;SDS011;22580;57.670;12.006;2022-09-03T08:11:57;0.20;;;0.20;;
13012;SDS011;22580;57.670;12.006;2022-09-03T08:14:25;0.10;;;0.10;;
13012;SDS011;22580;57.670;12.006;2022-09-03T08:16:54;0.68;;;0.68;;
13012;SDS011;22580;57.670;12.006;2022-09-03T08:19:21;0.93;;;0.70;;
13012;SDS011;22580;57.670;12.006;2022-09-03T08:21:48;0.63;;;0.63;;
13012;SDS011;22580;57.670;12.006;2022-09-03T08:24:15;1.27;;;0.80;;
13012;SDS011;22580;57.670;12.006;2022-09-03T08:26:45;0.80;;;0.80;;
13012;SDS011;22580;57.670;12.006;2022-09-03T08:29:12;0.35;;;0.35;;
13012;SDS011;22580;57.670;12.006;2022-09-03T08:31:40;0.38;;;0.38;;
13012;SDS011;22580;57.670;12.006;2022-09-03T08:34:09;0.13;;;0.13;;
13012;SDS011;22580;57.670;12.006;2022-09-03T08:36:38;0.20;;;0.20;;
13012;SDS011;22580;57.670;12.006;2022-09-03T08:39:07;0.20;;;0.20;;
13012;SDS011;22580;57.670;12.006;2022-09-03T08:41:47;0.80;;;0.80;;
13012;SDS011;22580;57.670;12.006;2022-09-03T08:44:40;1.00;;;0.90;;
13012;SDS011;22580;57.670;12.006;2022-09-03T08:47:13;1.60;;;1.15;;
13012;SDS011;22580;57.670;12.006;2022-09-03T08:49:47;0.82;;;0.77;;
13012;SDS011;22580;57.670;12.006;2022-09-03T08:52:28;1.42;;;0.77;;
13012;SDS011;22580;57.670;12.006;2022-09-03T08:55:00;0.40;;;0.40;;
13012;SDS011;22580;57.670;12.006;2022-09-03T08:57:41;0.50;;;0.47;;
13012;SDS011;22580;57.670;12.006;2022-09-03T09:00:12;0.28;;;0.28;;
13012;SDS011;22580;57.670;12.006;2022-09-03T09:02:44;0.20;;;0.20;;
13012;SDS011;22580;57.670;12.006;2022-09-03T09:05:21;0.20;;;0.20;;
13012;SDS011;22580;57.670;12.006;2022-09-03T09:07:59;0.10;;;0.10;;
13012;SDS011;22580;57.670;12.006;2022-09-03T09:10:34;0.20;;;0.20;;
13012;SDS011;22580;57.670;12.006;2022-09-03T09:13:12;0.20;;;0.20;;
13012;SDS011;22580;57.670;12.006;2022-09-03T09:15:51;0.30;;;0.30;;
13012;SDS011;22580;57.670;12.006;2022-09-03T09:18:34;0.20;;;0.20;;
13012;SDS011;22580;57.670;12.006;2022-09-03T09:21:14;0.20;;;0.20;;
13012;SDS011;22580;57.670;12.006;2022-09-03T09:23:43;0.20;;;0.20;;
13012;SDS011;22580;57.670;12.006;2022-09-03T09:26:14;0.15;;;0.15;;
13012;SDS011;22580;57.670;12.006;2022-09-03T09:28:42;0.28;;;0.20;;
13012;SDS011;22580;57.670;12.006;2022-09-03T09:31:13;0.20;;;0.20;;
13012;SDS011;22580;57.670;12.006;2022-09-03T09:33:44;0.13;;;0.13;;
13012;SDS011;22580;57.670;12.006;2022-09-03T09:36:12;0.10;;;0.10;;
13012;SDS011;22580;57.670;12.006;2022-09-03T09:38:43;0.20;;;0.20;;
13012;SDS011;22580;57.670;12.006;2022-09-03T09:41:12;0.40;;;0.30;;
13012;SDS011;22580;57.670;12.006;2022-09-03T09:43:41;0.10;;;0.10;;
13012;SDS011;22580;57.670;12.006;2022-09-03T09:46:13;0.20;;;0.20;;
13012;SDS011;22580;57.670;12.006;2022-09-03T09:48:48;0.20;;;0.20;;
13012;SDS011;22580;57.670;12.006;2022-09-03T09:51:19;0.20;;;0.20;;
13012;SDS011;22580;57.670;12.006;2022-09-03T09:53:58;0.20;;;0.20;;
13012;SDS011;22580;57.670;12.006;2022-09-03T09:56:27;0.20;;;0.20;;
13012;SDS011;22580;57.670;12.006;2022-09-03T09:59:04;0.20;;;0.20;;
13012;SDS011;22580;57.670;12.006;2022-09-03T10:01:32;0.43;;;0.38;;
13012;SDS011;22580;57.670;12.006;2022-09-03T10:04:08;0.38;;;0.20;;
13012;SDS011;22580;57.670;12.006;2022-09-03T10:06:37;0.10;;;0.10;;
13012;SDS011;22580;57.670;12.006;2022-09-03T10:09:22;0.20;;;0.20;;
13012;SDS011;22580;57.670;12.006;2022-09-03T10:11:53;0.25;;;0.25;;
13012;SDS011;22580;57.670;12.006;2022-09-03T10:14:29;0.30;;;0.30;;
13012;SDS011;22580;57.670;12.006;2022-09-03T10:17:08;2.10;;;0.30;;
13012;SDS011;22580;57.670;12.006;2022-09-03T10:19:45;0.25;;;0.25;;
13012;SDS011;22580;57.670;12.006;2022-09-03T10:22:37;0.20;;;0.20;;
13012;SDS011;22580;57.670;12.006;2022-09-03T10:25:07;0.30;;;0.30;;
13012;SDS011;22580;57.670;12.006;2022-09-03T10:27:35;0.20;;;0.20;;
13012;SDS011;22580;57.670;12.006;2022-09-03T10:30:07;0.20;;;0.20;;
13012;SDS011;22580;57.670;12.006;2022-09-03T10:32:36;0.20;;;0.20;;
13012;SDS011;22580;57.670;12.006;2022-09-03T10:35:13;0.30;;;0.30;;
13012;SDS011;22580;57.670;12.006;2022-09-03T10:37:49;0.30;;;0.30;;
13012;SDS011;22580;57.670;12.006;2022-09-03T10:40:27;0.20;;;0.20;;
13012;SDS011;22580;57.670;12.006;2022-09-03T10:43:09;0.20;;;0.20;;
13012;SDS011;22580;57.670;12.006;2022-09-03T10:45:47;0.20;;;0.20;;
13012;SDS011;22580;57.670;12.006;2022-09-03T10:51:45;0.30;;;0.20;;
13012;SDS011;22580;57.670;12.006;2022-09-03T10:54:25;0.25;;;0.25;;
13012;SDS011;22580;57.670;12.006;2022-09-03T10:57:07;0.20;;;0.20;;
13012;SDS011;22580;57.670;12.006;2022-09-03T10:59:48;0.30;;;0.20;;
13012;SDS011;22580;57.670;12.006;2022-09-03T11:02:35;0.10;;;0.10;;
13012;SDS011;22580;57.670;12.006;2022-09-03T11:05:25;0.10;;;0.10;;
13012;SDS011;22580;57.670;12.006;2022-09-03T11:07:58;0.17;;;0.17;;
13012;SDS011;22580;57.670;12.006;2022-09-03T11:10:31;0.20;;;0.20;;
13012;SDS011;22580;57.670;12.006;2022-09-03T11:13:05;0.20;;;0.20;;
13012;SDS011;22580;57.670;12.006;2022-09-03T11:15:38;0.30;;;0.30;;
13012;SDS011;22580;57.670;12.006;2022-09-03T11:18:13;0.20;;;0.20;;
13012;SDS011;22580;57.670;12.006;2022-09-03T11:20:48;0.30;;;0.30;;
13012;SDS011;22580;57.670;12.006;2022-09-03T11:23:19;0.20;;;0.20;;
13012;SDS011;22580;57.670;12.006;2022-09-03T11:25:50;0.15;;;0.15;;
13012;SDS011;22580;57.670;12.006;2022-09-03T11:28:26;0.30;;;0.20;;
13012;SDS011;22580;57.670;12.006;2022-09-03T11:31:08;0.30;;;0.30;;
13012;SDS011;22580;57.670;12.006;2022-09-03T11:33:44;0.30;;;0.30;;
13012;SDS011;22580;57.670;12.006;2022-09-03T11:36:22;0.20;;;0.20;;
13012;SDS011;22580;57.670;12.006;2022-09-03T11:38:55;0.22;;;0.22;;
13012;SDS011;22580;57.670;12.006;2022-09-03T11:41:23;0.20;;;0.20;;
13012;SDS011;22580;57.670;12.006;2022-09-03T11:43:52;0.20;;;0.20;;
13012;SDS011;22580;57.670;12.006;2022-09-03T11:46:27;0.20;;;0.20;;
13012;SDS011;22580;57.670;12.006;2022-09-03T11:48:56;0.20;;;0.20;;
13012;SDS011;22580;57.670;12.006;2022-09-03T11:51:36;0.20;;;0.20;;
13012;SDS011;22580;57.670;12.006;2022-09-03T11:54:23;0.30;;;0.28;;
13012;SDS011;22580;57.670;12.006;2022-09-03T11:59:39;0.30;;;0.30;;
13012;SDS011;22580;57.670;12.006;2022-09-03T12:02:11;0.60;;;0.60;;
13012;SDS011;22580;57.670;12.006;2022-09-03T12:04:58;0.40;;;0.40;;
13012;SDS011;22580;57.670;12.006;2022-09-03T12:07:43;1.00;;;0.60;;
13012;SDS011;22580;57.670;12.006;2022-09-03T12:10:28;0.63;;;0.63;;
13012;SDS011;22580;57.670;12.006;2022-09-03T12:18:46;0.50;;;0.47;;
13012;SDS011;22580;57.670;12.006;2022-09-03T12:21:17;0.40;;;0.40;;
13012;SDS011;22580;57.670;12.006;2022-09-03T12:23:45;1.30;;;0.60;;
13012;SDS011;22580;57.670;12.006;2022-09-03T12:26:16;0.40;;;0.40;;
13012;SDS011;22580;57.670;12.006;2022-09-03T12:28:48;0.30;;;0.30;;
13012;SDS011;22580;57.670;12.006;2022-09-03T12:31:17;0.30;;;0.30;;
13012;SDS011;22580;57.670;12.006;2022-09-03T12:33:50;0.17;;;0.17;;
13012;SDS011;22580;57.670;12.006;2022-09-03T12:36:22;0.40;;;0.40;;
13012;SDS011;22580;57.670;12.006;2022-09-03T12:38:51;0.35;;;0.30;;
13012;SDS011;22580;57.670;12.006;2022-09-03T12:41:20;0.28;;;0.28;;
13012;SDS011;22580;57.670;12.006;2022-09-03T12:43:50;0.30;;;0.30;;
13012;SDS011;22580;57.670;12.006;2022-09-03T12:46:21;0.20;;;0.20;;
13012;SDS011;22580;57.670;12.006;2022-09-03T12:48:53;0.20;;;0.20;;
13012;SDS011;22580;57.670;12.006;2022-09-03T12:51:21;0.10;;;0.10;;
13012;SDS011;22580;57.670;12.006;2022-09-03T12:53:51;0.20;;;0.20;;
13012;SDS011;22580;57.670;12.006;2022-09-03T12:56:21;0.20;;;0.20;;
13012;SDS011;22580;57.670;12.006;2022-09-03T12:59:03;0.10;;;0.10;;
13012;SDS011;22580;57.670;12.006;2022-09-03T13:01:36;0.10;;;0.10;;
13012;SDS011;22580;57.670;12.006;2022-09-03T13:04:10;0.20;;;0.20;;
13012;SDS011;22580;57.670;12.006;2022-09-03T13:06:43;0.10;;;0.10;;
13012;SDS011;22580;57.670;12.006;2022-09-03T13:09:17;0.20;;;0.20;;
13012;SDS011;22580;57.670;12.006;2022-09-03T13:11:50;0.20;;;0.20;;
13012;SDS011;22580;57.670;12.006;2022-09-03T13:14:19;0.10;;;0.10;;
13012;SDS011;22580;57.670;12.006;2022-09-03T13:16:52;0.10;;;0.10;;
13012;SDS011;22580;57.670;12.006;2022-09-03T13:19:36;0.10;;;0.10;;
13012;SDS011;22580;57.670;12.006;2022-09-03T13:22:14;0.28;;;0.28;;
13012;SDS011;22580;57.670;12.006;2022-09-03T13:27:53;0.08;;;0.08;;
13012;SDS011;22580;57.670;12.006;2022-09-03T13:30:31;0.20;;;0.20;;
13012;SDS011;22580;57.670;12.006;2022-09-03T13:33:04;0.30;;;0.30;;
13012;SDS011;22580;57.670;12.006;2022-09-03T13:35:41;0.22;;;0.20;;
13012;SDS011;22580;57.670;12.006;2022-09-03T13:38:17;0.20;;;0.20;;
13012;SDS011;22580;57.670;12.006;2022-09-03T13:40:50;0.20;;;0.20;;
13012;SDS011;22580;57.670;12.006;2022-09-03T13:43:27;0.30;;;0.30;;
13012;SDS011;22580;57.670;12.006;2022-09-03T13:46:02;0.30;;;0.30;;
13012;SDS011;22580;57.670;12.006;2022-09-03T13:48:33;0.68;;;0.22;;
13012;SDS011;22580;57.670;12.006;2022-09-03T13:51:23;0.30;;;0.30;;
13012;SDS011;22580;57.670;12.006;2022-09-03T13:54:00;0.30;;;0.28;;
13012;SDS011;22580;57.670;12.006;2022-09-03T13:56:43;0.30;;;0.30;;
13012;SDS011;22580;57.670;12.006;2022-09-03T13:59:22;0.20;;;0.20;;
13012;SDS011;22580;57.670;12.006;2022-09-03T14:02:00;0.20;;;0.20;;
13012;SDS011;22580;57.670;12.006;2022-09-03T14:04:39;0.30;;;0.30;;
13012;SDS011;22580;57.670;12.006;2022-09-03T14:07:14;0.20;;;0.20;;
13012;SDS011;22580;57.670;12.006;2022-09-03T14:09:50;0.30;;;0.30;;
13012;SDS011;22580;57.670;12.006;2022-09-03T14:12:24;0.30;;;0.30;;
13012;SDS011;22580;57.670;12.006;2022-09-03T14:15:07;0.30;;;0.30;;
13012;SDS011;22580;57.670;12.006;2022-09-03T14:17:43;0.30;;;0.30;;
13012;SDS011;22580;57.670;12.006;2022-09-03T14:20:17;0.30;;;0.30;;
13012;SDS011;22580;57.670;12.006;2022-09-03T14:22:51;0.20;;;0.20;;
13012;SDS011;22580;57.670;12.006;2022-09-03T14:25:22;0.28;;;0.28;;
13012;SDS011;22580;57.670;12.006;2022-09-03T14:27:52;0.30;;;0.30;;
13012;SDS011;22580;57.670;12.006;2022-09-03T14:30:27;0.20;;;0.20;;
13012;SDS011;22580;57.670;12.006;2022-09-03T14:33:07;0.20;;;0.20;;
13012;SDS011;22580;57.670;12.006;2022-09-03T14:35:43;0.30;;;0.30;;
13012;SDS011;22580;57.670;12.006;2022-09-03T14:38:26;0.30;;;0.30;;
13012;SDS011;22580;57.670;12.006;2022-09-03T14:41:24;0.20;;;0.20;;
13012;SDS011;22580;57.670;12.006;2022-09-03T14:44:26;0.20;;;0.20;;
13012;SDS011;22580;57.670;12.006;2022-09-03T14:47:12;0.20;;;0.20;;
13012;SDS011;22580;57.670;12.006;2022-09-03T14:49:56;0.20;;;0.20;;
13012;SDS011;22580;57.670;12.006;2022-09-03T14:52:48;0.43;;;0.30;;
13012;SDS011;22580;57.670;12.006;2022-09-03T14:55:28;0.22;;;0.22;;
13012;SDS011;22580;57.670;12.006;2022-09-03T14:58:13;0.25;;;0.25;;
13012;SDS011;22580;57.670;12.006;2022-09-03T15:00:51;0.30;;;0.30;;
13012;SDS011;22580;57.670;12.006;2022-09-03T15:03:32;0.30;;;0.30;;
13012;SDS011;22580;57.670;12.006;2022-09-03T15:06:20;0.20;;;0.20;;
13012;SDS011;22580;57.670;12.006;2022-09-03T15:08:56;0.25;;;0.25;;
13012;SDS011;22580;57.670;12.006;2022-09-03T15:11:43;0.32;;;0.32;;
13012;SDS011;22580;57.670;12.006;2022-09-03T15:14:17;0.30;;;0.30;;
13012;SDS011;22580;57.670;12.006;2022-09-03T15:16:49;0.40;;;0.35;;
13012;SDS011;22580;57.670;12.006;2022-09-03T15:22:19;0.30;;;0.30;;
13012;SDS011;22580;57.670;12.006;2022-09-03T15:25:03;0.30;;;0.30;;
13012;SDS011;22580;57.670;12.006;2022-09-03T15:27:51;0.20;;;0.20;;
13012;SDS011;22580;57.670;12.006;2022-09-03T15:30:31;0.65;;;0.30;;